createdAt,value
2023-02-04T00:00:01.425Z,18.35
2023-02-04T00:02:03.177Z,18.02
2023-02-04T00:04:05.488Z,16.58
2023-02-04T00:06:07.626Z,16.25
2023-02-04T00:08:10.101Z,15.10
2023-02-04T00:10:11.991Z,17.45
2023-02-04T00:12:14.344Z,19.70
2023-02-04T00:14:16.132Z,13.85
2023-02-04T00:16:17.991Z,15.65
2023-02-04T00:18:21.990Z,13.32
2023-02-04T00:20:24.547Z,19.30
2023-02-04T00:22:29.443Z,16.85
2023-02-04T00:24:31.581Z,19.50
2023-02-04T00:26:33.353Z,15.23
2023-02-04T00:28:35.348Z,17.65
2023-02-04T00:30:37.160Z,16.00
2023-02-04T00:32:38.934Z,23.92
2023-02-04T00:34:41.341Z,19.17
2023-02-04T00:36:43.145Z,13.95
2023-02-04T00:38:45.082Z,14.32
2023-02-04T00:40:47.429Z,16.27
2023-02-04T00:42:52.167Z,14.85
2023-02-04T00:44:54.603Z,17.80
2023-02-04T00:46:57.404Z,12.32
2023-02-04T00:48:59.366Z,19.05
2023-02-04T00:51:03.986Z,14.52
2023-02-04T00:53:06.966Z,15.02
2023-02-04T00:55:10.632Z,11.93
2023-02-04T00:57:15.824Z,16.45
2023-02-04T00:59:17.616Z,16.25
2023-02-04T01:01:19.735Z,13.77
2023-02-04T01:03:21.941Z,15.43
2023-02-04T01:05:23.895Z,12.52
2023-02-04T01:07:25.940Z,19.38
2023-02-04T01:09:27.924Z,17.95
2023-02-04T01:11:31.575Z,15.57
2023-02-04T01:13:33.413Z,17.15
2023-02-04T01:15:35.722Z,16.02
2023-02-04T01:17:37.488Z,15.93
2023-02-04T01:19:39.639Z,14.93
2023-02-04T01:21:41.466Z,13.63
2023-02-04T01:23:43.320Z,17.20
2023-02-04T01:25:45.182Z,13.35
2023-02-04T01:27:47.424Z,13.82
2023-02-04T01:29:49.593Z,10.98
2023-02-04T01:31:51.530Z,15.13
2023-02-04T01:33:53.383Z,12.02
2023-02-04T01:35:55.279Z,14.68
2023-02-04T01:37:57.504Z,16.90
2023-02-04T01:40:01.330Z,15.88
2023-02-04T01:42:04.026Z,16.65
2023-02-04T01:44:06.733Z,14.52
2023-02-04T01:46:09.453Z,14.45
2023-02-04T01:48:13.184Z,13.95
2023-02-04T01:50:18.713Z,16.88
2023-02-04T01:52:21.953Z,18.40
2023-02-04T01:54:24.815Z,19.58
2023-02-04T01:56:29.681Z,18.30
2023-02-04T01:58:33.731Z,17.83
2023-02-04T02:00:35.654Z,17.67
2023-02-04T02:02:42.650Z,16.40
2023-02-04T02:04:44.561Z,15.23
2023-02-04T02:06:52.492Z,16.67
2023-02-04T02:08:58.455Z,18.35
2023-02-04T02:11:00.586Z,17.63
2023-02-04T02:13:02.525Z,18.98
2023-02-04T02:15:05.471Z,14.88
2023-02-04T02:17:07.269Z,13.25
2023-02-04T02:19:15.568Z,16.75
2023-02-04T02:21:24.631Z,15.35
2023-02-04T02:23:32.612Z,16.10
2023-02-04T02:25:34.366Z,16.60
2023-02-04T02:27:36.562Z,13.45
2023-02-04T02:29:41.366Z,14.88
2023-02-04T02:31:43.364Z,15.30
2023-02-04T02:33:45.476Z,13.13
2023-02-04T02:35:48.479Z,15.32
2023-02-04T02:37:50.365Z,14.80
2023-02-04T02:39:52.228Z,14.93
2023-02-04T02:41:55.912Z,12.82
2023-02-04T02:43:58.041Z,13.98
2023-02-04T02:46:01.906Z,18.38
2023-02-04T02:48:04.050Z,16.15
2023-02-04T02:50:06.637Z,12.68
2023-02-04T02:52:12.161Z,14.20
2023-02-04T02:54:21.727Z,13.50
2023-02-04T02:56:23.846Z,16.42
2023-02-04T02:58:32.399Z,10.15
2023-02-04T03:00:34.519Z,12.90
2023-02-04T03:02:36.495Z,12.90
2023-02-04T03:04:42.929Z,12.63
2023-02-04T03:06:45.242Z,15.38
2023-02-04T03:08:50.345Z,12.45
2023-02-04T03:10:52.452Z,12.95
2023-02-04T03:12:54.363Z,13.55
2023-02-04T03:14:56.328Z,14.35
2023-02-04T03:16:59.482Z,13.02
2023-02-04T03:19:02.439Z,10.50
2023-02-04T03:21:07.561Z,14.75
2023-02-04T03:23:09.465Z,9.55
2023-02-04T03:25:11.277Z,11.05
2023-02-04T03:27:15.361Z,13.45
2023-02-04T03:29:17.442Z,10.52
2023-02-04T03:31:19.377Z,10.95
2023-02-04T03:33:21.702Z,12.25
2023-02-04T03:35:26.398Z,14.68
2023-02-04T03:37:28.210Z,13.57
2023-02-04T03:39:30.419Z,11.25
2023-02-04T03:41:32.150Z,12.75
2023-02-04T03:43:36.399Z,10.43
2023-02-04T03:45:45.234Z,10.68
2023-02-04T03:47:47.655Z,11.05
2023-02-04T03:49:49.487Z,11.85
2023-02-04T03:51:51.465Z,15.68
2023-02-04T03:53:53.235Z,11.98
2023-02-04T03:55:55.025Z,12.82
2023-02-04T03:57:56.895Z,16.40
2023-02-04T03:59:58.755Z,13.30
2023-02-04T04:02:00.997Z,14.68
2023-02-04T04:04:02.946Z,16.38
2023-02-04T04:06:06.477Z,11.65
2023-02-04T04:08:08.423Z,14.02
2023-02-04T04:10:12.764Z,13.65
2023-02-04T04:12:14.606Z,14.38
2023-02-04T04:14:16.531Z,12.65
2023-02-04T04:16:18.644Z,13.45
2023-02-04T04:18:20.541Z,11.32
2023-02-04T04:20:25.507Z,13.98
2023-02-04T04:22:27.757Z,17.23
2023-02-04T04:24:29.650Z,13.15
2023-02-04T04:26:31.461Z,15.73
2023-02-04T04:28:33.556Z,16.23
2023-02-04T04:30:35.423Z,10.80
2023-02-04T04:32:37.272Z,15.20
2023-02-04T04:34:39.512Z,19.58
2023-02-04T04:36:41.481Z,11.85
2023-02-04T04:38:45.661Z,16.95
2023-02-04T04:40:47.409Z,15.50
2023-02-04T04:42:49.186Z,13.38
2023-02-04T04:44:50.991Z,12.63
2023-02-04T04:46:52.869Z,19.30
2023-02-04T04:48:55.216Z,12.60
2023-02-04T04:50:58.354Z,19.27
2023-02-04T04:53:00.132Z,12.77
2023-02-04T04:55:01.977Z,14.43
2023-02-04T04:57:04.231Z,13.55
2023-02-04T04:59:05.983Z,13.00
2023-02-04T05:01:07.783Z,17.92
2023-02-04T05:03:09.668Z,16.88
2023-02-04T05:05:12.577Z,13.43
2023-02-04T05:07:14.446Z,10.63
2023-02-04T05:09:17.670Z,16.77
2023-02-04T05:11:19.754Z,13.07
2023-02-04T05:13:24.362Z,14.93
2023-02-04T05:15:26.508Z,13.20
2023-02-04T05:17:28.779Z,13.82
2023-02-04T05:19:30.988Z,15.95
2023-02-04T05:21:32.774Z,14.50
2023-02-04T05:23:36.656Z,12.50
2023-02-04T05:25:41.516Z,12.57
2023-02-04T05:27:44.533Z,14.50
2023-02-04T05:29:46.389Z,11.57
2023-02-04T05:31:48.203Z,11.40
2023-02-04T05:33:50.059Z,13.30
2023-02-04T05:35:51.943Z,11.85
2023-02-04T05:37:53.747Z,13.48
2023-02-04T05:39:55.579Z,11.15
2023-02-04T05:41:57.777Z,12.02
2023-02-04T05:43:59.590Z,10.88
2023-02-04T05:46:01.998Z,9.57
2023-02-04T05:48:04.496Z,11.95
2023-02-04T05:50:07.420Z,13.20
2023-02-04T05:52:09.174Z,13.90
2023-02-04T05:54:11.343Z,11.45
2023-02-04T05:56:13.115Z,10.13
2023-02-04T05:58:14.936Z,10.07
2023-02-04T06:00:17.343Z,12.13
2023-02-04T06:02:19.661Z,10.20
2023-02-04T06:04:22.031Z,10.05
2023-02-04T06:06:26.345Z,9.63
2023-02-04T06:08:30.564Z,7.57
2023-02-04T06:10:33.039Z,10.43
2023-02-04T06:12:35.454Z,10.48
2023-02-04T06:14:37.273Z,11.32
2023-02-04T06:16:39.642Z,11.52
2023-02-04T06:18:45.449Z,12.65
2023-02-04T06:20:47.285Z,13.93
2023-02-04T06:22:51.772Z,11.30
2023-02-04T06:24:53.660Z,8.95
2023-02-04T06:26:55.446Z,7.80
2023-02-04T06:28:57.649Z,11.10
2023-02-04T06:30:59.744Z,13.63
2023-02-04T06:33:01.601Z,11.77
2023-02-04T06:35:03.467Z,9.15
2023-02-04T06:37:05.268Z,12.07
2023-02-04T06:39:07.027Z,10.27
2023-02-04T06:41:08.790Z,11.45
2023-02-04T06:43:10.563Z,11.13
2023-02-04T06:45:12.729Z,8.82
2023-02-04T06:47:14.595Z,9.48
2023-02-04T06:49:16.345Z,9.88
2023-02-04T06:51:18.487Z,13.38
2023-02-04T06:53:20.264Z,9.10
2023-02-04T06:55:22.035Z,9.50
2023-02-04T06:57:23.900Z,9.02
2023-02-04T06:59:29.495Z,11.60
2023-02-04T07:01:33.936Z,9.95
2023-02-04T07:03:35.716Z,8.93
2023-02-04T07:05:37.551Z,9.98
2023-02-04T07:07:39.695Z,11.70
2023-02-04T07:09:42.599Z,10.60
2023-02-04T07:11:44.432Z,10.35
2023-02-04T07:13:46.197Z,8.85
2023-02-04T07:15:47.998Z,11.65
2023-02-04T07:17:50.146Z,10.02
2023-02-04T07:19:52.991Z,8.85
2023-02-04T07:21:57.179Z,10.35
2023-02-04T07:23:59.592Z,13.18
2023-02-04T07:26:03.471Z,13.60
2023-02-04T07:28:06.204Z,10.38
2023-02-04T07:30:09.637Z,10.48
2023-02-04T07:32:11.468Z,10.63
2023-02-04T07:34:14.568Z,11.02
2023-02-04T07:36:16.326Z,8.77
2023-02-04T07:38:18.191Z,9.65
2023-02-04T07:40:22.031Z,9.68
2023-02-04T07:42:26.158Z,8.98
2023-02-04T07:44:28.160Z,10.25
2023-02-04T07:46:30.827Z,9.68
2023-02-04T07:48:32.752Z,9.52
2023-02-04T07:50:35.124Z,11.32
2023-02-04T07:52:37.237Z,7.85
2023-02-04T07:54:39.421Z,10.27
2023-02-04T07:56:41.533Z,12.65
2023-02-04T07:58:43.394Z,9.95
2023-02-04T08:00:45.271Z,7.72
2023-02-04T08:02:47.510Z,11.88
2023-02-04T08:04:49.333Z,8.48
2023-02-04T08:06:51.205Z,10.30
2023-02-04T08:08:53.515Z,8.60
2023-02-04T08:10:55.384Z,12.48
2023-02-04T08:12:57.683Z,9.32
2023-02-04T08:15:00.103Z,8.48
2023-02-04T08:17:01.941Z,8.77
2023-02-04T08:19:04.415Z,10.05
2023-02-04T08:21:06.548Z,9.63
2023-02-04T08:23:09.118Z,8.73
2023-02-04T08:25:12.917Z,7.65
2023-02-04T08:27:14.902Z,8.98
2023-02-04T08:29:16.727Z,8.75
2023-02-04T08:31:18.998Z,8.38
2023-02-04T08:33:22.327Z,7.97
2023-02-04T08:35:24.301Z,7.32
2023-02-04T08:37:26.457Z,9.23
2023-02-04T08:39:28.410Z,6.97
2023-02-04T08:41:30.895Z,6.15
2023-02-04T08:43:32.690Z,6.97
2023-02-04T08:45:34.470Z,8.57
2023-02-04T08:47:38.600Z,6.63
2023-02-04T08:49:40.464Z,7.60
2023-02-04T08:51:42.485Z,6.93
2023-02-04T08:53:44.569Z,7.03
2023-02-04T08:55:48.664Z,6.47
2023-02-04T08:57:50.554Z,6.93
2023-02-04T08:59:52.460Z,6.75
2023-02-04T09:01:54.443Z,6.97
2023-02-04T09:03:56.346Z,7.15
2023-02-04T09:05:58.284Z,5.45
2023-02-04T09:08:00.154Z,13.18
2023-02-04T09:10:04.737Z,7.35
2023-02-04T09:12:06.688Z,6.47
2023-02-04T09:14:08.838Z,5.72
2023-02-04T09:16:10.960Z,6.40
2023-02-04T09:18:16.852Z,4.53
2023-02-04T09:20:19.005Z,6.60
2023-02-04T09:22:20.816Z,7.32
2023-02-04T09:24:24.801Z,6.50
2023-02-04T09:26:26.614Z,9.48
2023-02-04T09:28:28.560Z,7.38
2023-02-04T09:30:31.272Z,6.55
2023-02-04T09:32:33.700Z,4.88
2023-02-04T09:34:35.565Z,8.20
2023-02-04T09:36:39.074Z,5.43
2023-02-04T09:38:41.186Z,6.63
2023-02-04T09:40:54.797Z,8.88
2023-02-04T09:42:56.798Z,5.82
2023-02-04T09:45:00.856Z,4.47
2023-02-04T09:47:03.338Z,6.32
2023-02-04T09:49:08.285Z,7.68
2023-02-04T09:51:16.606Z,5.22
2023-02-04T09:53:23.632Z,3.95
2023-02-04T09:55:32.131Z,5.13
2023-02-04T09:57:34.452Z,5.40
2023-02-04T09:59:36.344Z,4.15
2023-02-04T10:01:40.372Z,5.28
2023-02-04T10:03:47.005Z,6.13
2023-02-04T10:05:50.573Z,3.95
2023-02-04T10:07:52.584Z,4.78
2023-02-04T10:09:55.300Z,7.30
2023-02-04T10:12:01.065Z,3.97
2023-02-04T10:14:03.059Z,5.05
2023-02-04T10:16:14.870Z,5.93
2023-02-04T10:18:27.252Z,2.65
2023-02-04T10:20:29.332Z,2.75
2023-02-04T10:22:31.614Z,3.28
2023-02-04T10:24:34.772Z,6.32
2023-02-04T10:26:37.012Z,2.40
2023-02-04T10:28:40.520Z,3.33
2023-02-04T10:30:43.968Z,2.65
2023-02-04T10:32:46.445Z,3.63
2023-02-04T10:34:50.476Z,5.88
2023-02-04T10:36:55.840Z,3.95
2023-02-04T10:39:04.057Z,1.90
2023-02-04T10:41:06.561Z,6.43
2023-02-04T10:43:11.624Z,4.70
2023-02-04T10:45:19.804Z,2.80
2023-02-04T10:47:25.466Z,4.57
2023-02-04T10:49:27.820Z,3.13
2023-02-04T10:51:29.744Z,5.65
2023-02-04T10:53:34.829Z,2.33
2023-02-04T10:55:36.868Z,3.60
2023-02-04T10:57:41.196Z,2.28
2023-02-04T10:59:44.799Z,4.47
2023-02-04T11:01:46.757Z,4.07
2023-02-04T11:03:50.479Z,5.15
2023-02-04T11:05:58.581Z,7.18
2023-02-04T11:08:01.550Z,3.65
2023-02-04T11:10:03.796Z,2.35
2023-02-04T11:12:06.085Z,6.40
2023-02-04T11:14:24.181Z,3.53
2023-02-04T11:16:30.567Z,1.38
2023-02-04T11:18:32.656Z,1.52
2023-02-04T11:20:39.781Z,3.10
2023-02-04T11:22:45.090Z,2.60
2023-02-04T11:24:47.042Z,3.35
2023-02-04T11:26:54.081Z,4.07
2023-02-04T11:29:00.586Z,0.75
2023-02-04T11:31:04.371Z,2.40
2023-02-04T11:33:21.811Z,1.08
2023-02-04T11:35:27.690Z,6.47
2023-02-04T11:37:37.052Z,2.03
2023-02-04T11:39:42.540Z,1.90
2023-02-04T11:41:49.813Z,6.60
2023-02-04T11:43:53.401Z,2.08
2023-02-04T11:46:01.612Z,4.50
2023-02-04T11:48:13.819Z,3.72
2023-02-04T11:50:25.128Z,4.00
2023-02-04T11:52:27.018Z,3.63
2023-02-04T11:54:28.887Z,4.43
2023-02-04T11:56:30.953Z,5.55
2023-02-04T11:58:33.102Z,7.38
2023-02-04T12:00:35.081Z,5.53
2023-02-04T12:02:42.919Z,4.55
2023-02-04T12:04:51.220Z,4.13
2023-02-04T12:06:59.659Z,4.30
2023-02-04T12:09:07.825Z,7.50
2023-02-04T12:11:28.204Z,2.88
2023-02-04T12:13:32.520Z,6.80
2023-02-04T12:15:36.546Z,5.25
2023-02-04T12:17:38.704Z,6.80
2023-02-04T12:19:40.941Z,5.05
2023-02-04T12:21:43.161Z,7.65
2023-02-04T12:23:48.099Z,6.10
2023-02-04T12:25:51.127Z,5.15
2023-02-04T12:27:55.856Z,6.63
2023-02-04T12:29:57.974Z,7.28
2023-02-04T12:32:02.708Z,9.80
2023-02-04T12:34:04.599Z,5.88
2023-02-04T12:36:07.532Z,6.70
2023-02-04T12:38:10.493Z,4.80
2023-02-04T12:40:16.894Z,5.05
2023-02-04T12:42:18.970Z,6.43
2023-02-04T12:44:20.898Z,8.00
2023-02-04T12:46:25.134Z,6.40
2023-02-04T12:48:27.124Z,5.10
2023-02-04T12:50:31.178Z,6.95
2023-02-04T12:52:33.160Z,9.98
2023-02-04T12:54:35.804Z,7.65
2023-02-04T12:56:37.665Z,7.20
2023-02-04T12:58:39.619Z,6.13
2023-02-04T13:00:42.384Z,7.97
2023-02-04T13:02:44.676Z,10.15
2023-02-04T13:04:46.584Z,6.63
2023-02-04T13:06:49.200Z,5.88
2023-02-04T13:08:51.036Z,9.68
2023-02-04T13:10:53.214Z,4.97
2023-02-04T13:12:55.292Z,8.57
2023-02-04T13:14:57.269Z,6.30
2023-02-04T13:16:59.834Z,7.63
2023-02-04T13:19:01.720Z,8.68
2023-02-04T13:21:03.828Z,9.13
2023-02-04T13:23:05.759Z,8.55
2023-02-04T13:25:07.823Z,8.80
2023-02-04T13:27:15.765Z,12.32
2023-02-04T13:29:17.820Z,7.43
2023-02-04T13:31:19.961Z,7.13
2023-02-04T13:33:21.878Z,6.68
2023-02-04T13:35:25.561Z,5.45
2023-02-04T13:37:27.669Z,4.45
2023-02-04T13:39:30.051Z,6.55
2023-02-04T13:41:32.058Z,8.27
2023-02-04T13:43:34.077Z,5.10
2023-02-04T13:45:36.243Z,6.90
2023-02-04T13:47:41.033Z,6.60
2023-02-04T13:49:43.294Z,4.30
2023-02-04T13:51:45.244Z,4.93
2023-02-04T13:53:47.138Z,6.50
2023-02-04T13:55:49.221Z,9.85
2023-02-04T13:57:51.161Z,4.85
2023-02-04T13:59:53.676Z,6.97
2023-02-04T14:01:55.658Z,7.55
2023-02-04T14:03:57.926Z,3.88
2023-02-04T14:05:59.848Z,6.15
2023-02-04T14:08:01.938Z,5.95
2023-02-04T14:10:04.591Z,6.80
2023-02-04T14:12:07.056Z,8.90
2023-02-04T14:14:09.168Z,8.25
2023-02-04T14:16:11.100Z,2.50
2023-02-04T14:18:13.464Z,2.65
2023-02-04T14:20:15.501Z,6.55
2023-02-04T14:22:17.674Z,4.75
2023-02-04T14:24:20.686Z,5.40
2023-02-04T14:26:22.582Z,4.40
2023-02-04T14:28:24.604Z,7.28
2023-02-04T14:30:28.417Z,3.45
2023-02-04T14:32:30.659Z,5.38
2023-02-04T14:34:32.667Z,6.30
2023-02-04T14:36:34.584Z,7.55
2023-02-04T14:38:39.263Z,3.47
2023-02-04T14:40:41.576Z,9.07
2023-02-04T14:42:43.600Z,6.47
2023-02-04T14:44:47.675Z,5.20
2023-02-04T14:46:49.847Z,6.20
2023-02-04T14:48:54.639Z,2.10
2023-02-04T14:50:56.603Z,5.43
2023-02-04T14:52:58.649Z,5.35
2023-02-04T14:55:00.713Z,7.00
2023-02-04T14:57:02.633Z,5.72
2023-02-04T14:59:04.699Z,5.68
2023-02-04T15:01:06.646Z,4.55
2023-02-04T15:03:08.630Z,3.55
2023-02-04T15:05:11.180Z,4.47
2023-02-04T15:07:13.380Z,2.97
2023-02-04T15:09:17.527Z,2.75
2023-02-04T15:11:19.438Z,4.43
2023-02-04T15:13:21.361Z,3.58
2023-02-04T15:15:23.345Z,4.35
2023-02-04T15:17:25.288Z,3.08
2023-02-04T15:19:29.719Z,7.70
2023-02-04T15:21:31.728Z,3.85
2023-02-04T15:23:33.638Z,2.85
2023-02-04T15:25:35.719Z,3.40
2023-02-04T15:27:37.686Z,2.55
2023-02-04T15:29:39.671Z,3.83
2023-02-04T15:31:41.702Z,2.75
2023-02-04T15:33:43.780Z,2.20
2023-02-04T15:35:46.091Z,5.60
2023-02-04T15:37:49.106Z,2.95
2023-02-04T15:39:51.063Z,3.10
2023-02-04T15:41:52.935Z,4.40
2023-02-04T15:43:55.370Z,4.25
2023-02-04T15:45:57.354Z,6.60
2023-02-04T15:47:59.329Z,3.40
2023-02-04T15:50:01.333Z,3.80
2023-02-04T15:52:04.783Z,5.68
2023-02-04T15:54:09.101Z,8.48
2023-02-04T15:56:10.968Z,3.10
2023-02-04T15:58:15.208Z,3.28
2023-02-04T16:00:17.461Z,3.97
2023-02-04T16:02:22.304Z,4.03
2023-02-04T16:04:24.240Z,5.70
2023-02-04T16:06:26.075Z,5.13
2023-02-04T16:08:28.298Z,3.45
2023-02-04T16:10:30.346Z,4.35
2023-02-04T16:12:32.282Z,3.95
2023-02-04T16:14:34.378Z,5.95
2023-02-04T16:16:36.647Z,5.03
2023-02-04T16:18:38.632Z,5.50
2023-02-04T16:20:40.564Z,2.38
2023-02-04T16:22:42.847Z,5.50
2023-02-04T16:24:44.906Z,5.28
2023-02-04T16:26:47.277Z,4.30
2023-02-04T16:28:49.576Z,3.97
2023-02-04T16:30:53.865Z,9.45
2023-02-04T16:32:55.952Z,5.38
2023-02-04T16:35:00.495Z,10.38
2023-02-04T16:37:02.772Z,4.55
2023-02-04T16:39:04.818Z,6.03
2023-02-04T16:41:07.807Z,5.57
2023-02-04T16:43:09.678Z,7.57
2023-02-04T16:45:13.511Z,8.68
2023-02-04T16:47:15.455Z,6.28
2023-02-04T16:49:17.953Z,7.93
2023-02-04T16:51:20.593Z,7.05
2023-02-04T16:53:23.156Z,8.50
2023-02-04T16:55:27.829Z,10.70
2023-02-04T16:57:29.704Z,5.65
2023-02-04T16:59:32.492Z,8.48
2023-02-04T17:01:34.451Z,6.43
2023-02-04T17:03:36.409Z,6.28
2023-02-04T17:05:41.763Z,5.35
2023-02-04T17:07:43.697Z,10.50
2023-02-04T17:09:46.019Z,10.43
2023-02-04T17:11:47.962Z,10.10
2023-02-04T17:13:49.791Z,10.48
2023-02-04T17:15:52.198Z,16.23
2023-02-04T17:17:54.056Z,15.75
2023-02-04T17:19:56.040Z,42.80
2023-02-04T17:21:57.894Z,96.32
2023-02-04T17:24:04.217Z,11.48
2023-02-04T17:26:06.655Z,9.02
2023-02-04T17:28:08.633Z,8.57
2023-02-04T17:30:11.481Z,15.85
2023-02-04T17:32:16.402Z,10.25
2023-02-04T17:34:18.535Z,7.78
2023-02-04T17:36:22.640Z,9.90
2023-02-04T17:38:28.539Z,9.85
2023-02-04T17:40:31.441Z,10.80
2023-02-04T17:42:33.759Z,11.88
2023-02-04T17:44:35.761Z,8.20
2023-02-04T17:46:37.713Z,8.82
2023-02-04T17:48:39.987Z,6.60
2023-02-04T17:50:43.528Z,10.57
2023-02-04T17:52:45.705Z,9.05
2023-02-04T17:54:47.730Z,8.93
2023-02-04T17:56:50.601Z,10.60
2023-02-04T17:58:54.435Z,7.07
2023-02-04T18:00:58.114Z,7.68
2023-02-04T18:03:00.277Z,8.48
2023-02-04T18:05:13.051Z,6.78
2023-02-04T18:07:14.915Z,9.50
2023-02-04T18:09:18.749Z,4.40
2023-02-04T18:11:27.407Z,6.95
2023-02-04T18:13:33.136Z,6.50
2023-02-04T18:15:36.856Z,7.03
2023-02-04T18:17:39.191Z,6.65
2023-02-04T18:19:42.521Z,4.72
2023-02-04T18:21:45.442Z,6.75
2023-02-04T18:23:49.851Z,6.65
2023-02-04T18:25:52.381Z,5.25
2023-02-04T18:27:54.982Z,7.55
2023-02-04T18:30:00.363Z,7.97
2023-02-04T18:32:07.022Z,5.13
2023-02-04T18:34:16.960Z,7.53
2023-02-04T18:36:20.661Z,5.80
2023-02-04T18:38:27.020Z,9.50
2023-02-04T18:40:31.352Z,4.03
2023-02-04T18:42:33.309Z,6.28
2023-02-04T18:44:39.174Z,6.95
2023-02-04T18:46:46.988Z,5.93
2023-02-04T18:48:52.524Z,6.38
2023-02-04T18:50:54.950Z,7.70
2023-02-04T18:53:06.878Z,10.43
2023-02-04T18:55:15.109Z,6.38
2023-02-04T18:57:29.011Z,9.32
2023-02-04T18:59:31.293Z,10.10
2023-02-04T19:01:39.003Z,10.02
2023-02-04T19:03:47.973Z,9.57
2023-02-04T19:05:51.364Z,8.50
2023-02-04T19:08:00.101Z,5.25
2023-02-04T19:10:14.848Z,6.85
2023-02-04T19:12:22.380Z,12.50
2023-02-04T19:14:33.147Z,10.73
2023-02-04T19:18:43.190Z,10.55
2023-02-04T19:20:45.069Z,6.65
2023-02-04T19:22:50.440Z,10.43
2023-02-04T19:24:59.345Z,11.63
2023-02-04T19:27:02.583Z,7.35
2023-02-04T19:29:10.635Z,10.25
2023-02-04T19:31:13.301Z,10.55
2023-02-04T19:33:24.114Z,16.42
2023-02-04T19:37:36.171Z,10.75
2023-02-04T19:39:40.568Z,10.02
2023-02-04T19:41:48.713Z,13.13
2023-02-04T19:43:50.609Z,12.32
2023-02-04T19:45:54.003Z,10.50
2023-02-04T19:47:57.331Z,8.15
2023-02-04T19:50:04.238Z,10.88
2023-02-04T19:52:21.797Z,11.60
2023-02-04T19:54:32.053Z,14.48
2023-02-04T19:56:36.441Z,15.13
2023-02-04T19:58:44.947Z,11.07
2023-02-04T20:00:56.255Z,13.02
2023-02-04T20:02:58.648Z,15.23
2023-02-04T20:05:01.059Z,11.75
2023-02-04T20:07:08.189Z,8.65
2023-02-04T20:09:16.561Z,11.23
2023-02-04T20:11:22.338Z,13.38
2023-02-04T20:13:26.940Z,12.43
2023-02-04T20:15:28.894Z,15.30
2023-02-04T20:17:36.391Z,8.30
2023-02-04T20:19:39.107Z,10.05
2023-02-04T20:21:41.077Z,7.72
2023-02-04T20:23:43.056Z,9.68
2023-02-04T20:25:47.988Z,8.52
2023-02-04T20:27:57.274Z,11.45
2023-02-04T20:30:20.277Z,13.65
2023-02-04T20:32:28.123Z,11.18
2023-02-04T20:34:35.941Z,11.65
2023-02-04T20:36:42.513Z,16.90
2023-02-04T20:38:46.039Z,10.57
2023-02-04T20:40:48.097Z,9.43
2023-02-04T20:42:53.004Z,10.43
2023-02-04T20:45:01.916Z,8.60
2023-02-04T20:47:17.882Z,9.77
2023-02-04T20:49:23.850Z,8.43
2023-02-04T20:51:27.398Z,11.75
2023-02-04T20:53:37.491Z,9.98
2023-02-04T20:55:39.746Z,11.77
2023-02-04T20:57:41.523Z,13.98
2023-02-04T20:59:44.942Z,10.35
2023-02-04T21:01:49.798Z,10.30
2023-02-04T21:03:51.876Z,7.75
2023-02-04T21:05:56.212Z,19.85
2023-02-04T21:08:02.115Z,10.45
2023-02-04T21:10:04.561Z,9.85
2023-02-04T21:12:07.398Z,5.78
2023-02-04T21:14:11.761Z,18.80
2023-02-04T21:16:13.742Z,10.88
2023-02-04T21:18:15.786Z,8.32
2023-02-04T21:20:18.152Z,10.93
2023-02-04T21:22:19.982Z,13.23
2023-02-04T21:24:21.978Z,11.02
2023-02-04T21:26:26.280Z,11.40
2023-02-04T21:28:28.856Z,9.07
2023-02-04T21:30:31.228Z,10.13
2023-02-04T21:32:33.142Z,12.48
2023-02-04T21:34:35.070Z,8.13
2023-02-04T21:36:36.952Z,12.35
2023-02-04T21:38:38.927Z,13.27
2023-02-04T21:40:44.241Z,11.13
2023-02-04T21:42:46.456Z,10.43
2023-02-04T21:44:48.337Z,11.75
2023-02-04T21:46:50.184Z,11.82
2023-02-04T21:48:52.071Z,9.63
2023-02-04T21:50:56.330Z,14.38
2023-02-04T21:52:58.537Z,9.88
2023-02-04T21:55:00.367Z,13.90
2023-02-04T21:57:04.418Z,7.75
2023-02-04T21:59:06.237Z,7.45
2023-02-04T22:01:10.356Z,8.65
2023-02-04T22:03:16.069Z,11.23
2023-02-04T22:05:18.251Z,14.23
2023-02-04T22:07:20.578Z,7.90
2023-02-04T22:09:22.395Z,12.32
2023-02-04T22:11:24.302Z,12.25
2023-02-04T22:13:26.259Z,10.07
2023-02-04T22:15:28.842Z,11.68
2023-02-04T22:17:31.048Z,12.88
2023-02-04T22:19:32.887Z,13.18
2023-02-04T22:21:36.408Z,14.65
2023-02-04T22:23:39.716Z,11.05
2023-02-04T22:25:41.575Z,11.77
2023-02-04T22:27:43.457Z,17.15
2023-02-04T22:29:45.389Z,13.50
2023-02-04T22:31:47.381Z,13.57
2023-02-04T22:33:51.962Z,8.90
2023-02-04T22:35:53.831Z,11.18
2023-02-04T22:37:55.771Z,10.80
2023-02-04T22:39:58.072Z,14.32
2023-02-04T22:42:00.125Z,12.27
2023-02-04T22:44:01.978Z,13.00
2023-02-04T22:46:03.892Z,11.10
2023-02-04T22:48:07.895Z,15.68
2023-02-04T22:50:12.837Z,8.93
2023-02-04T22:52:17.321Z,11.48
2023-02-04T22:54:19.430Z,16.40
2023-02-04T22:56:21.870Z,13.02
2023-02-04T22:58:23.838Z,11.68
2023-02-04T23:00:25.753Z,18.80
2023-02-04T23:02:27.586Z,11.98
2023-02-04T23:04:29.385Z,9.68
2023-02-04T23:06:31.470Z,10.77
2023-02-04T23:08:33.292Z,9.75
2023-02-04T23:10:35.142Z,11.60
2023-02-04T23:12:37.073Z,12.45
2023-02-04T23:14:44.110Z,8.02
2023-02-04T23:16:47.303Z,8.98
2023-02-04T23:18:49.404Z,11.20
2023-02-04T23:20:51.302Z,12.80
2023-02-04T23:22:54.954Z,16.75
2023-02-04T23:24:57.741Z,10.68
2023-02-04T23:27:00.337Z,15.85
2023-02-04T23:29:04.327Z,9.75
2023-02-04T23:31:08.249Z,12.50
2023-02-04T23:33:10.974Z,11.98
2023-02-04T23:35:13.436Z,11.30
2023-02-04T23:37:15.294Z,9.18
2023-02-04T23:39:19.362Z,13.65
2023-02-04T23:41:21.116Z,17.05
2023-02-04T23:43:23.082Z,15.77
2023-02-04T23:45:25.575Z,11.70
2023-02-04T23:47:27.543Z,9.45
2023-02-04T23:49:29.519Z,14.35
2023-02-04T23:51:32.210Z,13.63
2023-02-04T23:53:34.068Z,18.17
2023-02-04T23:55:36.452Z,13.20
2023-02-04T23:57:38.724Z,14.90
2023-02-04T23:59:42.159Z,13.50
